createdAt,value
2024-02-22T00:04:35.575Z,96421.00
2024-02-22T00:09:29.327Z,96412.44
2024-02-22T00:14:24.381Z,96408.34
2024-02-22T00:19:20.697Z,96408.25
2024-02-22T00:24:14.361Z,96392.91
2024-02-22T00:29:07.965Z,96375.28
2024-02-22T00:34:03.014Z,96377.78
2024-02-22T00:39:04.640Z,96371.16
2024-02-22T00:48:58.758Z,96355.38
2024-02-22T01:09:12.322Z,96323.13
2024-02-22T01:14:07.276Z,96314.38
2024-02-22T01:19:03.537Z,96311.34
2024-02-22T01:23:59.229Z,96307.53
2024-02-22T01:44:15.104Z,96252.66
2024-02-22T01:49:08.953Z,96256.75
2024-02-22T01:54:03.038Z,96237.06
2024-02-22T01:58:59.751Z,96248.03
2024-02-22T02:03:57.395Z,96231.69
2024-02-22T02:08:53.825Z,96234.34
2024-02-22T02:29:21.189Z,96184.50
2024-02-22T02:34:14.598Z,96186.16
2024-02-22T02:39:08.031Z,96183.91
2024-02-22T02:44:01.496Z,96178.56
2024-02-22T02:48:56.469Z,96179.56
2024-02-22T02:53:49.923Z,96175.97
2024-02-22T03:03:47.842Z,96182.59
2024-02-22T03:08:42.620Z,96168.53
2024-02-22T03:18:36.678Z,96156.88
2024-02-22T03:38:54.460Z,96137.81
2024-02-22T03:43:47.986Z,96136.13
2024-02-22T03:48:42.807Z,96125.84
2024-02-22T03:53:36.218Z,96136.44
2024-02-22T03:58:31.060Z,96125.09
2024-02-22T04:03:24.611Z,96135.06
2024-02-22T04:08:18.209Z,96132.91
2024-02-22T04:13:12.888Z,96126.16
2024-02-22T04:18:08.270Z,96134.78
2024-02-22T04:23:02.210Z,96126.56
2024-02-22T04:27:55.583Z,96116.41
2024-02-22T04:32:49.148Z,96114.75
2024-02-22T04:37:44.958Z,96120.50
2024-02-22T04:42:39.977Z,96102.13
2024-02-22T04:47:36.620Z,96091.09
2024-02-22T04:52:31.113Z,96082.94
2024-02-22T04:57:26.160Z,96073.53
2024-02-22T05:02:21.333Z,96075.41
2024-02-22T05:07:16.044Z,96055.81
2024-02-22T05:12:12.910Z,96058.06
2024-02-22T05:17:08.379Z,96074.81
2024-02-22T05:22:01.784Z,96046.25
2024-02-22T05:26:55.560Z,96036.13
2024-02-22T05:31:49.191Z,96046.72
2024-02-22T05:36:45.704Z,96040.38
2024-02-22T05:41:41.246Z,96030.44
2024-02-22T05:46:34.756Z,96026.03
2024-02-22T05:51:29.356Z,96014.19
2024-02-22T05:56:47.694Z,96003.28
2024-02-22T06:01:41.483Z,95997.88
2024-02-22T06:06:34.930Z,95980.66
2024-02-22T06:11:29.785Z,95976.28
2024-02-22T06:16:23.135Z,95971.56
2024-02-22T06:21:16.728Z,95969.31
2024-02-22T06:26:10.212Z,95969.56
2024-02-22T06:31:06.885Z,95967.34
2024-02-22T06:36:00.589Z,95967.63
2024-02-22T06:40:54.707Z,95959.19
2024-02-22T06:45:48.611Z,95954.41
2024-02-22T06:50:43.530Z,95942.25
2024-02-22T06:55:37.059Z,95922.75
2024-02-22T07:00:30.450Z,95899.03
2024-02-22T07:05:24.057Z,95884.81
2024-02-22T07:10:18.921Z,95884.53
2024-02-22T07:15:14.178Z,95886.63
2024-02-22T07:20:10.099Z,95893.53
2024-02-22T07:25:03.611Z,95883.47
2024-02-22T07:29:58.400Z,95893.28
2024-02-22T07:34:55.031Z,95881.50
2024-02-22T07:39:48.454Z,95885.38
2024-02-22T07:44:45.346Z,95879.97
2024-02-22T07:49:40.478Z,95876.78
2024-02-22T07:54:39.648Z,95873.56
2024-02-22T07:59:33.040Z,95852.59
2024-02-22T08:04:28.006Z,95858.25
2024-02-22T08:09:23.303Z,95858.25
2024-02-22T08:14:17.270Z,95862.38
2024-02-22T08:19:10.859Z,95848.63
2024-02-22T08:24:04.609Z,95845.47
2024-02-22T08:29:00.280Z,95858.81
2024-02-22T08:33:53.791Z,95846.44
2024-02-22T08:38:47.249Z,95850.88
2024-02-22T08:43:42.779Z,95847.00
2024-02-22T08:48:38.128Z,95830.75
2024-02-22T08:53:32.817Z,95817.25
2024-02-22T08:58:26.539Z,95817.25
2024-02-22T09:03:20.060Z,95811.38
2024-02-22T09:08:15.101Z,95802.63
2024-02-22T09:13:09.154Z,95787.47
2024-02-22T09:18:02.672Z,95783.22
2024-02-22T09:22:59.039Z,95795.06
2024-02-22T09:27:53.762Z,95772.03
2024-02-22T09:32:52.880Z,95754.28
2024-02-22T09:37:48.005Z,95759.81
2024-02-22T09:42:47.591Z,95756.91
2024-02-22T09:47:43.136Z,95755.41
2024-02-22T09:52:39.924Z,95768.59
2024-02-22T09:57:34.508Z,95767.66
2024-02-22T10:02:27.987Z,95746.31
2024-02-22T10:07:27.237Z,95740.13
2024-02-22T10:12:29.282Z,95735.97
2024-02-22T10:17:27.342Z,95704.72
2024-02-22T10:22:25.623Z,95671.28
2024-02-22T10:27:19.318Z,95656.50
2024-02-22T10:32:20.323Z,95670.81
2024-02-22T10:37:16.028Z,95669.63
2024-02-22T10:42:12.336Z,95670.63
2024-02-22T10:47:07.391Z,95652.72
2024-02-22T10:52:06.223Z,95661.63
2024-02-22T10:57:02.344Z,95659.88
2024-02-22T11:02:00.096Z,95643.53
2024-02-22T11:06:54.425Z,95616.78
2024-02-22T11:11:52.832Z,95601.81
2024-02-22T11:16:46.464Z,95607.19
2024-02-22T11:21:41.778Z,95610.72
2024-02-22T11:26:35.479Z,95611.91
2024-02-22T11:31:29.310Z,95589.06
2024-02-22T11:36:23.042Z,95570.88
2024-02-22T11:41:19.470Z,95561.78
2024-02-22T11:46:13.273Z,95553.94
2024-02-22T11:51:07.544Z,95516.28
2024-02-22T11:56:01.070Z,95516.84
2024-02-22T12:00:56.822Z,95501.53
2024-02-22T12:05:50.499Z,95467.31
2024-02-22T12:10:44.554Z,95457.00
2024-02-22T12:15:38.077Z,95409.38
2024-02-22T12:20:32.964Z,95393.31
2024-02-22T12:25:26.421Z,95363.22
2024-02-22T12:30:20.990Z,95341.44
2024-02-22T12:35:14.678Z,95331.03
2024-02-22T12:40:13.230Z,95330.13
2024-02-22T12:45:07.659Z,95298.03
2024-02-22T12:50:02.033Z,95291.03
2024-02-22T12:54:55.410Z,95286.38
2024-02-22T12:59:50.143Z,95276.06
2024-02-22T13:04:43.502Z,95290.09
2024-02-22T13:09:37.009Z,95274.91
2024-02-22T13:14:30.435Z,95283.22
2024-02-22T13:19:25.748Z,95285.06
2024-02-22T13:24:20.106Z,95291.09
2024-02-22T13:29:13.594Z,95294.00
2024-02-22T13:34:07.096Z,95282.53
2024-02-22T13:39:01.924Z,95299.03
2024-02-22T13:43:55.382Z,95263.66
2024-02-22T13:48:49.353Z,95257.47
2024-02-22T13:53:42.751Z,95247.78
2024-02-22T13:58:40.912Z,95252.38
2024-02-22T14:03:34.462Z,95251.56
2024-02-22T14:08:27.909Z,95232.63
2024-02-22T14:13:24.870Z,95224.63
2024-02-22T14:18:22.855Z,95225.69
2024-02-22T14:23:17.169Z,95215.13
2024-02-22T14:28:13.422Z,95191.03
2024-02-22T14:33:07.456Z,95189.22
2024-02-22T14:38:02.841Z,95173.06
2024-02-22T14:42:56.320Z,95168.34
2024-02-22T14:47:49.827Z,95159.81
2024-02-22T14:52:45.185Z,95158.22
2024-02-22T14:57:39.930Z,95144.06
2024-02-22T15:02:35.002Z,95139.53
2024-02-22T15:07:28.905Z,95124.31
2024-02-22T15:12:22.561Z,95119.69
2024-02-22T15:17:17.280Z,95110.59
2024-02-22T15:22:12.286Z,95097.06
2024-02-22T15:27:06.032Z,95098.81
2024-02-22T15:31:59.383Z,95079.16
2024-02-22T15:36:54.770Z,95074.28
2024-02-22T15:41:48.318Z,95071.19
2024-02-22T15:46:41.739Z,95075.16
2024-02-22T15:51:35.268Z,95043.56
2024-02-22T15:56:31.392Z,95054.22
2024-02-22T16:01:30.242Z,95033.09
2024-02-22T16:06:23.693Z,95048.34
2024-02-22T16:11:22.329Z,95059.44
2024-02-22T16:16:18.101Z,95052.53
2024-02-22T16:21:12.704Z,95051.06
2024-02-22T16:26:06.243Z,95041.25
2024-02-22T16:31:02.782Z,95057.28
2024-02-22T16:36:03.412Z,95043.84
2024-02-22T16:40:57.091Z,95031.59
2024-02-22T16:45:50.990Z,95017.81
2024-02-22T16:50:44.874Z,95009.03
2024-02-22T16:55:39.722Z,95006.41
2024-02-22T17:00:33.104Z,94997.56
2024-02-22T17:05:27.150Z,94976.94
2024-02-22T17:10:21.396Z,94963.41
2024-02-22T17:15:18.188Z,94948.34
2024-02-22T17:20:13.453Z,94947.69
2024-02-22T17:25:11.061Z,94963.22
2024-02-22T17:30:05.053Z,94981.69
2024-02-22T17:35:03.394Z,94990.94
2024-02-22T17:39:57.370Z,94966.78
2024-02-22T17:44:50.923Z,94960.09
2024-02-22T17:49:44.354Z,94947.84
2024-02-22T17:54:41.625Z,94929.22
2024-02-22T17:59:39.904Z,94895.03
2024-02-22T18:04:34.407Z,94909.28
2024-02-22T18:09:30.051Z,94939.97
2024-02-22T18:14:26.087Z,94906.44
2024-02-22T18:19:20.813Z,94900.75
2024-02-22T18:24:15.561Z,94854.16
2024-02-22T18:29:09.028Z,94849.09
2024-02-22T18:34:04.325Z,94811.97
2024-02-22T18:38:57.776Z,94807.88
2024-02-22T18:43:57.338Z,94829.31
2024-02-22T18:48:52.687Z,94830.94
2024-02-22T18:53:47.562Z,94845.47
2024-02-22T18:58:41.160Z,94870.66
2024-02-22T19:03:34.854Z,94880.47
2024-02-22T19:08:28.254Z,94882.09
2024-02-22T19:13:24.161Z,94884.59
2024-02-22T19:18:20.561Z,94897.09
2024-02-22T19:23:14.116Z,94879.44
2024-02-22T19:28:08.841Z,94893.19
2024-02-22T19:33:08.327Z,94906.56
2024-02-22T19:38:03.930Z,94866.38
2024-02-22T19:42:57.314Z,94862.75
2024-02-22T19:47:50.746Z,94862.63
2024-02-22T19:52:46.141Z,94865.88
2024-02-22T19:57:39.772Z,94868.19
2024-02-22T20:02:34.713Z,94851.00
2024-02-22T20:07:28.409Z,94871.13
2024-02-22T20:12:23.128Z,94868.50
2024-02-22T20:17:16.619Z,94865.53
2024-02-22T20:22:09.923Z,94854.31
2024-02-22T20:27:03.287Z,94859.34
2024-02-22T20:31:58.346Z,94855.59
2024-02-22T20:36:52.110Z,94855.78
2024-02-22T20:41:47.526Z,94866.41
2024-02-22T20:46:41.527Z,94888.44
2024-02-22T20:51:36.656Z,94867.84
2024-02-22T20:56:32.201Z,94913.88
2024-02-22T21:01:27.381Z,94974.72
2024-02-22T21:06:22.246Z,95012.41
2024-02-22T21:11:18.037Z,94990.84
2024-02-22T21:16:11.854Z,94996.78
2024-02-22T21:21:07.439Z,95009.91
2024-02-22T21:26:01.170Z,95010.16
2024-02-22T21:30:56.516Z,95026.91
2024-02-22T21:35:52.545Z,95037.34
2024-02-22T21:40:46.284Z,95065.19
2024-02-22T21:45:39.895Z,95053.47
2024-02-22T21:50:35.282Z,95068.69
2024-02-22T21:55:30.733Z,95097.47
2024-02-22T22:00:24.659Z,95109.31
2024-02-22T22:05:18.207Z,95108.59
2024-02-22T22:10:13.202Z,95127.00
2024-02-22T22:15:07.473Z,95136.63
2024-02-22T22:20:01.278Z,95146.00
2024-02-22T22:24:54.763Z,95152.44
2024-02-22T22:29:49.600Z,95165.75
2024-02-22T22:34:42.884Z,95170.03
2024-02-22T22:39:36.336Z,95176.47
2024-02-22T22:44:30.521Z,95184.16
2024-02-22T22:49:25.985Z,95192.41
2024-02-22T22:54:22.075Z,95206.00
2024-02-22T22:59:15.571Z,95206.00
2024-02-22T23:04:08.893Z,95219.63
2024-02-22T23:09:04.927Z,95247.09
2024-02-22T23:13:58.904Z,95275.53
2024-02-22T23:18:52.393Z,95276.75
2024-02-22T23:23:47.949Z,95296.22
2024-02-22T23:28:42.622Z,95314.59
2024-02-22T23:33:36.264Z,95325.94
2024-02-22T23:38:29.810Z,95296.78
2024-02-22T23:43:23.168Z,95294.16
2024-02-22T23:48:17.921Z,95275.66
2024-02-22T23:53:11.376Z,95286.50
2024-02-22T23:58:04.913Z,95282.50
